sensor_id;sensor_type;location;lat;lon;timestamp;pressure;altitude;pressure_sealevel;temperature;humidity
39891;BME280;25564;53.312;9.790;2022-10-23T00:02:28;100899.81;;;11.08;91.37
39891;BME280;25564;53.312;9.790;2022-10-23T00:04:59;100884.16;;;10.91;91.32
39891;BME280;25564;53.312;9.790;2022-10-23T00:07:31;100902.63;;;10.99;91.28
39891;BME280;25564;53.312;9.790;2022-10-23T00:10:02;100907.09;;;10.95;91.06
39891;BME280;25564;53.312;9.790;2022-10-23T00:12:34;100908.91;;;10.93;91.47
39891;BME280;25564;53.312;9.790;2022-10-23T00:15:06;100902.75;;;10.90;91.75
39891;BME280;25564;53.312;9.790;2022-10-23T00:17:37;100889.59;;;10.84;91.71
39891;BME280;25564;53.312;9.790;2022-10-23T00:20:10;100895.75;;;10.86;91.67
39891;BME280;25564;53.312;9.790;2022-10-23T00:22:42;100908.16;;;10.84;91.38
39891;BME280;25564;53.312;9.790;2022-10-23T00:25:13;100909.06;;;10.82;91.56
39891;BME280;25564;53.312;9.790;2022-10-23T00:27:46;100904.66;;;10.81;91.40
39891;BME280;25564;53.312;9.790;2022-10-23T00:30:17;100904.66;;;10.81;91.41
39891;BME280;25564;53.312;9.790;2022-10-23T00:32:49;100898.53;;;10.78;91.53
39891;BME280;25564;53.312;9.790;2022-10-23T00:35:20;100896.72;;;10.80;91.89
39891;BME280;25564;53.312;9.790;2022-10-23T00:37:51;100902.91;;;10.80;91.85
39891;BME280;25564;53.312;9.790;2022-10-23T00:40:22;100899.41;;;10.78;91.92
39891;BME280;25564;53.312;9.790;2022-10-23T00:42:54;100907.38;;;10.77;91.89
39891;BME280;25564;53.312;9.790;2022-10-23T00:45:30;100896.81;;;10.74;92.17
39891;BME280;25564;53.312;9.790;2022-10-23T00:48:03;100907.44;;;10.72;91.88
39891;BME280;25564;53.312;9.790;2022-10-23T00:50:35;100894.25;;;10.68;91.75
39891;BME280;25564;53.312;9.790;2022-10-23T00:53:06;100889.00;;;10.63;91.71
39891;BME280;25564;53.312;9.790;2022-10-23T00:55:40;100897.00;;;10.62;91.26
39891;BME280;25564;53.312;9.790;2022-10-23T00:58:19;100891.72;;;10.59;92.00
39891;BME280;25564;53.312;9.790;2022-10-23T01:00:54;100900.59;;;10.58;91.60
39891;BME280;25564;53.312;9.790;2022-10-23T01:03:27;100890.03;;;10.55;91.43
39891;BME280;25564;53.312;9.790;2022-10-23T01:06:08;100888.34;;;10.47;91.51
39891;BME280;25564;53.312;9.790;2022-10-23T01:09:31;100895.41;;;10.48;91.42
39891;BME280;25564;53.312;9.790;2022-10-23T01:11:54;100907.84;;;10.45;91.96
39891;BME280;25564;53.312;9.790;2022-10-23T01:14:37;100900.84;;;10.41;91.66
39891;BME280;25564;53.312;9.790;2022-10-23T01:17:29;100895.63;;;10.36;91.59
39891;BME280;25564;53.312;9.790;2022-10-23T01:20:44;100893.03;;;10.32;91.29
39891;BME280;25564;53.312;9.790;2022-10-23T01:26:17;100899.34;;;10.23;91.54
39891;BME280;25564;53.312;9.790;2022-10-23T01:28:58;100897.59;;;10.21;91.20
39891;BME280;25564;53.312;9.790;2022-10-23T01:31:41;100898.50;;;10.18;91.14
39891;BME280;25564;53.312;9.790;2022-10-23T01:34:19;100900.28;;;10.16;91.08
39891;BME280;25564;53.312;9.790;2022-10-23T01:36:52;100902.97;;;10.13;91.11
39891;BME280;25564;53.312;9.790;2022-10-23T01:39:28;100904.75;;;10.12;91.34
39891;BME280;25564;53.312;9.790;2022-10-23T01:42:09;100901.22;;;10.12;91.41
39891;BME280;25564;53.312;9.790;2022-10-23T01:44:45;100892.41;;;10.10;91.27
39891;BME280;25564;53.312;9.790;2022-10-23T01:47:19;100889.78;;;10.07;91.28
39891;BME280;25564;53.312;9.790;2022-10-23T01:49:58;100885.44;;;10.03;91.41
39891;BME280;25564;53.312;9.790;2022-10-23T01:52:30;100890.69;;;10.06;91.58
39891;BME280;25564;53.312;9.790;2022-10-23T01:55:02;100871.34;;;9.98;91.23
39891;BME280;25564;53.312;9.790;2022-10-23T01:57:35;100886.31;;;10.03;91.53
39891;BME280;25564;53.312;9.790;2022-10-23T02:00:11;100886.34;;;10.00;91.44
39891;BME280;25564;53.312;9.790;2022-10-23T02:02:44;100866.13;;;9.92;91.46
39891;BME280;25564;53.312;9.790;2022-10-23T02:05:22;100874.91;;;9.97;91.45
39891;BME280;25564;53.312;9.790;2022-10-23T02:07:54;100881.09;;;9.96;91.73
39891;BME280;25564;53.312;9.790;2022-10-23T02:10:59;100866.19;;;9.87;91.35
39891;BME280;25564;53.312;9.790;2022-10-23T02:13:45;100878.47;;;9.93;91.53
39891;BME280;25564;53.312;9.790;2022-10-23T02:16:40;100880.25;;;9.92;91.83
39891;BME280;25564;53.312;9.790;2022-10-23T02:19:36;100867.06;;;9.86;91.57
39891;BME280;25564;53.312;9.790;2022-10-23T02:22:11;100871.44;;;9.90;91.86
39891;BME280;25564;53.312;9.790;2022-10-23T02:24:55;100872.34;;;9.89;91.53
39891;BME280;25564;53.312;9.790;2022-10-23T02:27:31;100865.31;;;9.85;92.08
39891;BME280;25564;53.312;9.790;2022-10-23T02:30:07;100857.44;;;9.80;91.94
39891;BME280;25564;53.312;9.790;2022-10-23T02:32:41;100869.69;;;9.89;92.30
39891;BME280;25564;53.312;9.790;2022-10-23T02:35:17;100870.56;;;9.90;92.08
39891;BME280;25564;53.312;9.790;2022-10-23T02:37:59;100868.78;;;9.92;92.54
39891;BME280;25564;53.312;9.790;2022-10-23T02:40:43;100864.38;;;9.91;91.96
39891;BME280;25564;53.312;9.790;2022-10-23T02:43:23;100868.78;;;9.90;92.34
39891;BME280;25564;53.312;9.790;2022-10-23T02:49:05;100864.41;;;9.88;92.42
39891;BME280;25564;53.312;9.790;2022-10-23T02:51:56;100859.16;;;9.84;92.12
39891;BME280;25564;53.312;9.790;2022-10-23T02:54:42;100865.34;;;9.83;92.14
39891;BME280;25564;53.312;9.790;2022-10-23T02:57:27;100864.44;;;9.84;92.07
39891;BME280;25564;53.312;9.790;2022-10-23T03:00:06;100856.53;;;9.80;92.60
39891;BME280;25564;53.312;9.790;2022-10-23T03:05:42;100853.06;;;9.75;92.81
39891;BME280;25564;53.312;9.790;2022-10-23T03:08:15;100844.28;;;9.73;92.47
39891;BME280;25564;53.312;9.790;2022-10-23T03:10:46;100845.19;;;9.70;92.50
39891;BME280;25564;53.312;9.790;2022-10-23T03:13:18;100851.34;;;9.71;92.67
39891;BME280;25564;53.312;9.790;2022-10-23T03:15:49;100837.31;;;9.64;92.59
39891;BME280;25564;53.312;9.790;2022-10-23T03:18:21;100854.94;;;9.67;92.42
39891;BME280;25564;53.312;9.790;2022-10-23T03:20:52;100855.84;;;9.64;92.65
39891;BME280;25564;53.312;9.790;2022-10-23T03:23:23;100836.47;;;9.59;92.05
39891;BME280;25564;53.312;9.790;2022-10-23T03:25:55;100841.75;;;9.62;92.09
39891;BME280;25564;53.312;9.790;2022-10-23T03:28:26;100838.25;;;9.59;92.35
39891;BME280;25564;53.312;9.790;2022-10-23T03:30:57;100845.28;;;9.61;92.45
39891;BME280;25564;53.312;9.790;2022-10-23T03:33:30;100844.44;;;9.59;92.29
39891;BME280;25564;53.312;9.790;2022-10-23T03:36:01;100843.59;;;9.56;92.01
39891;BME280;25564;53.312;9.790;2022-10-23T03:38:32;100840.09;;;9.52;92.42
39891;BME280;25564;53.312;9.790;2022-10-23T03:41:04;100832.16;;;9.50;92.37
39891;BME280;25564;53.312;9.790;2022-10-23T03:43:35;100831.34;;;9.44;92.04
39891;BME280;25564;53.312;9.790;2022-10-23T03:46:06;100843.66;;;9.49;92.84
39891;BME280;25564;53.312;9.790;2022-10-23T03:48:42;100840.13;;;9.49;92.74
39891;BME280;25564;53.312;9.790;2022-10-23T03:51:13;100838.38;;;9.48;92.34
39891;BME280;25564;53.312;9.790;2022-10-23T03:53:45;100842.78;;;9.47;92.91
39891;BME280;25564;53.312;9.790;2022-10-23T03:56:16;100848.09;;;9.47;92.44
39891;BME280;25564;53.312;9.790;2022-10-23T03:58:47;100844.56;;;9.47;92.88
39891;BME280;25564;53.312;9.790;2022-10-23T04:01:19;100851.66;;;9.45;93.17
39891;BME280;25564;53.312;9.790;2022-10-23T04:03:50;100848.16;;;9.40;92.84
39891;BME280;25564;53.312;9.790;2022-10-23T04:06:22;100833.31;;;9.30;92.77
39891;BME280;25564;53.312;9.790;2022-10-23T04:08:53;100850.03;;;9.35;92.49
39891;BME280;25564;53.312;9.790;2022-10-23T04:11:24;100843.88;;;9.31;92.89
39891;BME280;25564;53.312;9.790;2022-10-23T04:13:56;100837.75;;;9.28;92.28
39891;BME280;25564;53.312;9.790;2022-10-23T04:16:27;100823.66;;;9.24;92.31
39891;BME280;25564;53.312;9.790;2022-10-23T04:18:58;100823.66;;;9.24;92.46
39891;BME280;25564;53.312;9.790;2022-10-23T04:21:29;100823.66;;;9.24;93.00
39891;BME280;25564;53.312;9.790;2022-10-23T04:24:01;100814.00;;;9.20;93.10
39891;BME280;25564;53.312;9.790;2022-10-23T04:26:32;100814.84;;;9.22;93.04
39891;BME280;25564;53.312;9.790;2022-10-23T04:29:03;100823.66;;;9.23;92.80
39891;BME280;25564;53.312;9.790;2022-10-23T04:31:35;100817.50;;;9.21;93.27
39891;BME280;25564;53.312;9.790;2022-10-23T04:34:06;100821.09;;;9.16;92.38
39891;BME280;25564;53.312;9.790;2022-10-23T04:36:37;100812.28;;;9.14;92.78
39891;BME280;25564;53.312;9.790;2022-10-23T04:39:09;100817.59;;;9.11;92.25
39891;BME280;25564;53.312;9.790;2022-10-23T04:41:40;100815.00;;;9.08;92.70
39891;BME280;25564;53.312;9.790;2022-10-23T04:44:12;100822.06;;;9.08;92.64
39891;BME280;25564;53.312;9.790;2022-10-23T04:46:43;100831.78;;;9.04;92.22
39891;BME280;25564;53.312;9.790;2022-10-23T04:49:14;100834.47;;;9.01;92.49
39891;BME280;25564;53.312;9.790;2022-10-23T04:51:46;100831.88;;;8.97;92.64
39891;BME280;25564;53.312;9.790;2022-10-23T04:54:17;100829.25;;;8.94;92.56
39891;BME280;25564;53.312;9.790;2022-10-23T04:56:48;100820.44;;;8.92;91.89
39891;BME280;25564;53.312;9.790;2022-10-23T04:59:20;100817.81;;;8.90;92.25
39891;BME280;25564;53.312;9.790;2022-10-23T05:01:51;100812.53;;;8.87;91.93
39891;BME280;25564;53.312;9.790;2022-10-23T05:04:22;100806.34;;;8.90;92.17
39891;BME280;25564;53.312;9.790;2022-10-23T05:06:53;100801.97;;;8.87;92.37
39891;BME280;25564;53.312;9.790;2022-10-23T05:09:25;100816.91;;;8.93;92.96
39891;BME280;25564;53.312;9.790;2022-10-23T05:11:56;100811.59;;;8.93;93.25
39891;BME280;25564;53.312;9.790;2022-10-23T05:14:27;100816.03;;;8.92;92.46
39891;BME280;25564;53.312;9.790;2022-10-23T05:17:16;100814.28;;;8.88;92.67
39891;BME280;25564;53.312;9.790;2022-10-23T05:19:53;100812.56;;;8.84;92.90
39891;BME280;25564;53.312;9.790;2022-10-23T05:22:28;100804.66;;;8.79;92.26
39891;BME280;25564;53.312;9.790;2022-10-23T05:25:01;100799.41;;;8.78;92.29
39891;BME280;25564;53.312;9.790;2022-10-23T05:27:32;100807.31;;;8.78;92.56
39891;BME280;25564;53.312;9.790;2022-10-23T05:30:04;100795.91;;;8.73;92.49
39891;BME280;25564;53.312;9.790;2022-10-23T05:32:36;100783.59;;;8.67;92.22
39891;BME280;25564;53.312;9.790;2022-10-23T05:35:27;100781.00;;;8.63;92.27
39891;BME280;25564;53.312;9.790;2022-10-23T05:38:00;100790.69;;;8.65;92.54
39891;BME280;25564;53.312;9.790;2022-10-23T05:40:32;100784.50;;;8.65;91.91
39891;BME280;25564;53.312;9.790;2022-10-23T05:43:04;100798.66;;;8.62;92.28
39891;BME280;25564;53.312;9.790;2022-10-23T05:45:35;100796.03;;;8.59;91.88
39891;BME280;25564;53.312;9.790;2022-10-23T05:48:06;100796.94;;;8.57;92.34
39891;BME280;25564;53.312;9.790;2022-10-23T05:50:52;100804.88;;;8.55;91.66
39891;BME280;25564;53.312;9.790;2022-10-23T05:53:23;100805.78;;;8.52;91.94
39891;BME280;25564;53.312;9.790;2022-10-23T05:55:55;100805.78;;;8.49;91.94
39891;BME280;25564;53.312;9.790;2022-10-23T05:58:27;100809.34;;;8.48;91.61
39891;BME280;25564;53.312;9.790;2022-10-23T06:00:58;100798.75;;;8.48;91.68
39891;BME280;25564;53.312;9.790;2022-10-23T06:03:30;100805.78;;;8.49;92.04
39891;BME280;25564;53.312;9.790;2022-10-23T06:06:01;100796.13;;;8.45;92.08
39891;BME280;25564;53.312;9.790;2022-10-23T06:08:33;100804.91;;;8.52;92.36
39891;BME280;25564;53.312;9.790;2022-10-23T06:11:06;100798.69;;;8.55;92.31
39891;BME280;25564;53.312;9.790;2022-10-23T06:13:38;100800.41;;;8.62;92.27
39891;BME280;25564;53.312;9.790;2022-10-23T06:16:12;100798.59;;;8.67;92.96
39891;BME280;25564;53.312;9.790;2022-10-23T06:18:44;100796.78;;;8.75;92.85
39891;BME280;25564;53.312;9.790;2022-10-23T06:21:19;100792.31;;;8.81;93.16
39891;BME280;25564;53.312;9.790;2022-10-23T06:23:50;100794.03;;;8.85;93.50
39891;BME280;25564;53.312;9.790;2022-10-23T06:26:21;100791.34;;;8.90;93.46
39891;BME280;25564;53.312;9.790;2022-10-23T06:28:53;100786.03;;;8.93;93.18
39891;BME280;25564;53.312;9.790;2022-10-23T06:31:24;100784.22;;;8.95;93.28
39891;BME280;25564;53.312;9.790;2022-10-23T06:33:59;100776.28;;;8.97;93.19
39891;BME280;25564;53.312;9.790;2022-10-23T06:36:30;100760.41;;;8.97;93.45
39891;BME280;25564;53.312;9.790;2022-10-23T06:39:01;100779.69;;;9.08;93.87
39891;BME280;25564;53.312;9.790;2022-10-23T06:41:33;100785.84;;;9.11;93.73
39891;BME280;25564;53.312;9.790;2022-10-23T06:44:04;100763.81;;;9.06;94.39
39891;BME280;25564;53.312;9.790;2022-10-23T06:46:35;100782.22;;;9.18;94.10
39891;BME280;25564;53.312;9.790;2022-10-23T06:49:07;100783.09;;;9.21;93.46
39891;BME280;25564;53.312;9.790;2022-10-23T06:51:38;100776.91;;;9.22;93.52
39891;BME280;25564;53.312;9.790;2022-10-23T06:54:10;100786.53;;;9.29;94.04
39891;BME280;25564;53.312;9.790;2022-10-23T06:56:41;100791.72;;;9.36;94.12
39891;BME280;25564;53.312;9.790;2022-10-23T06:59:12;100791.59;;;9.45;94.05
39891;BME280;25564;53.312;9.790;2022-10-23T07:01:44;100792.38;;;9.55;94.41
39891;BME280;25564;53.312;9.790;2022-10-23T07:04:15;100784.28;;;9.67;94.83
39891;BME280;25564;53.312;9.790;2022-10-23T07:06:47;100778.00;;;9.74;95.19
39891;BME280;25564;53.312;9.790;2022-10-23T07:09:18;100796.25;;;9.96;94.81
39891;BME280;25564;53.312;9.790;2022-10-23T07:11:49;100793.41;;;10.11;95.26
39891;BME280;25564;53.312;9.790;2022-10-23T07:14:21;100786.22;;;10.19;95.95
39891;BME280;25564;53.312;9.790;2022-10-23T07:16:52;100786.94;;;10.32;95.68
39891;BME280;25564;53.312;9.790;2022-10-23T07:19:23;100790.25;;;10.44;95.71
39891;BME280;25564;53.312;9.790;2022-10-23T07:21:55;100805.06;;;10.58;95.66
39891;BME280;25564;53.312;9.790;2022-10-23T07:24:26;100789.09;;;10.61;95.70
39891;BME280;25564;53.312;9.790;2022-10-23T07:26:57;100796.84;;;10.73;95.96
39891;BME280;25564;53.312;9.790;2022-10-23T07:29:29;100800.09;;;10.90;95.52
39891;BME280;25564;53.312;9.790;2022-10-23T07:32:00;100799.03;;;11.00;95.68
39891;BME280;25564;53.312;9.790;2022-10-23T07:34:32;100807.69;;;11.11;95.89
39891;BME280;25564;53.312;9.790;2022-10-23T07:37:03;100797.69;;;11.24;96.13
39891;BME280;25564;53.312;9.790;2022-10-23T07:39:34;100798.53;;;11.28;95.78
39891;BME280;25564;53.312;9.790;2022-10-23T07:42:08;100785.06;;;11.37;96.22
39891;BME280;25564;53.312;9.790;2022-10-23T07:44:39;100801.44;;;11.57;96.01
39891;BME280;25564;53.312;9.790;2022-10-23T07:47:10;100785.38;;;11.63;96.21
39891;BME280;25564;53.312;9.790;2022-10-23T07:49:42;100796.47;;;11.85;96.46
39891;BME280;25564;53.312;9.790;2022-10-23T07:52:13;100791.72;;;11.99;96.67
39891;BME280;25564;53.312;9.790;2022-10-23T07:54:44;100794.00;;;12.16;97.00
39891;BME280;25564;53.312;9.790;2022-10-23T07:57:15;100775.09;;;12.28;96.68
39891;BME280;25564;53.312;9.790;2022-10-23T07:59:47;100779.06;;;12.48;96.93
39891;BME280;25564;53.312;9.790;2022-10-23T08:02:19;100781.28;;;12.64;96.77
39891;BME280;25564;53.312;9.790;2022-10-23T08:04:51;100770.22;;;12.81;97.08
39891;BME280;25564;53.312;9.790;2022-10-23T08:07:22;100771.47;;;13.00;96.96
39891;BME280;25564;53.312;9.790;2022-10-23T08:09:53;100772.91;;;13.14;97.13
39891;BME280;25564;53.312;9.790;2022-10-23T08:12:25;100768.19;;;13.25;96.72
39891;BME280;25564;53.312;9.790;2022-10-23T08:14:56;100769.44;;;13.44;96.94
39891;BME280;25564;53.312;9.790;2022-10-23T08:17:27;100771.50;;;13.64;96.88
39891;BME280;25564;53.312;9.790;2022-10-23T08:19:59;100774.41;;;13.86;96.97
39891;BME280;25564;53.312;9.790;2022-10-23T08:22:30;100768.41;;;14.07;96.82
39891;BME280;25564;53.312;9.790;2022-10-23T08:25:01;100762.63;;;14.21;96.61
39891;BME280;25564;53.312;9.790;2022-10-23T08:27:33;100759.31;;;14.42;96.83
39891;BME280;25564;53.312;9.790;2022-10-23T08:30:04;100763.91;;;14.63;96.90
39891;BME280;25564;53.312;9.790;2022-10-23T08:32:36;100769.31;;;14.88;96.73
39891;BME280;25564;53.312;9.790;2022-10-23T08:35:07;100767.53;;;15.14;96.57
39891;BME280;25564;53.312;9.790;2022-10-23T08:37:39;100763.09;;;15.37;96.59
39891;BME280;25564;53.312;9.790;2022-10-23T08:40:15;100758.72;;;15.60;96.26
39891;BME280;25564;53.312;9.790;2022-10-23T08:42:55;100752.78;;;15.75;95.99
39891;BME280;25564;53.312;9.790;2022-10-23T08:45:37;100763.75;;;15.91;95.62
39891;BME280;25564;53.312;9.790;2022-10-23T08:48:53;100753.38;;;16.05;94.96
39891;BME280;25564;53.312;9.790;2022-10-23T08:51:40;100745.03;;;16.13;94.63
39891;BME280;25564;53.312;9.790;2022-10-23T08:54:13;100762.56;;;16.21;94.35
39891;BME280;25564;53.312;9.790;2022-10-23T08:56:54;100759.50;;;16.30;94.15
39891;BME280;25564;53.312;9.790;2022-10-23T08:59:34;100756.78;;;16.32;93.62
39891;BME280;25564;53.312;9.790;2022-10-23T09:02:15;100737.97;;;16.33;93.30
39891;BME280;25564;53.312;9.790;2022-10-23T09:04:51;100750.97;;;16.43;92.88
39891;BME280;25564;53.312;9.790;2022-10-23T09:07:43;100755.22;;;16.48;92.54
39891;BME280;25564;53.312;9.790;2022-10-23T09:10:31;100749.78;;;16.50;92.24
39891;BME280;25564;53.312;9.790;2022-10-23T09:13:20;100747.91;;;16.52;91.93
39891;BME280;25564;53.312;9.790;2022-10-23T09:16:12;100740.75;;;16.52;91.88
39891;BME280;25564;53.312;9.790;2022-10-23T09:18:47;100743.50;;;16.51;91.97
39891;BME280;25564;53.312;9.790;2022-10-23T09:21:18;100755.56;;;16.61;91.42
39891;BME280;25564;53.312;9.790;2022-10-23T09:23:50;100758.25;;;16.61;90.99
39891;BME280;25564;53.312;9.790;2022-10-23T09:26:22;100750.06;;;16.64;91.01
39891;BME280;25564;53.312;9.790;2022-10-23T09:29:05;100747.97;;;16.72;90.88
39891;BME280;25564;53.312;9.790;2022-10-23T09:31:57;100743.28;;;16.77;90.78
39891;BME280;25564;53.312;9.790;2022-10-23T09:34:31;100754.72;;;16.81;90.63
39891;BME280;25564;53.312;9.790;2022-10-23T09:37:21;100741.88;;;16.89;90.08
39891;BME280;25564;53.312;9.790;2022-10-23T09:40:14;100751.31;;;16.97;89.78
39891;BME280;25564;53.312;9.790;2022-10-23T09:42:52;100752.66;;;17.08;90.17
39891;BME280;25564;53.312;9.790;2022-10-23T09:45:33;100747.72;;;17.19;89.28
39891;BME280;25564;53.312;9.790;2022-10-23T09:48:17;100736.56;;;17.28;88.74
39891;BME280;25564;53.312;9.790;2022-10-23T09:50:58;100738.03;;;17.35;88.11
39891;BME280;25564;53.312;9.790;2022-10-23T09:53:36;100750.25;;;17.42;87.90
39891;BME280;25564;53.312;9.790;2022-10-23T09:56:29;100747.94;;;17.53;87.11
39891;BME280;25564;53.312;9.790;2022-10-23T09:59:03;100748.59;;;17.58;86.95
39891;BME280;25564;53.312;9.790;2022-10-23T10:01:45;100744.91;;;17.61;86.81
39891;BME280;25564;53.312;9.790;2022-10-23T10:04:16;100739.47;;;17.62;86.45
39891;BME280;25564;53.312;9.790;2022-10-23T10:06:55;100722.41;;;17.63;85.85
39891;BME280;25564;53.312;9.790;2022-10-23T10:09:27;100732.72;;;17.73;85.78
39891;BME280;25564;53.312;9.790;2022-10-23T10:15:19;100717.78;;;17.86;85.10
39891;BME280;25564;53.312;9.790;2022-10-23T10:18:39;100717.41;;;17.93;85.04
39891;BME280;25564;53.312;9.790;2022-10-23T10:30:12;100703.25;;;18.09;85.28
39891;BME280;25564;53.312;9.790;2022-10-23T10:32:57;100696.63;;;18.16;85.29
39891;BME280;25564;53.312;9.790;2022-10-23T10:35:42;100692.72;;;18.23;84.91
39891;BME280;25564;53.312;9.790;2022-10-23T10:46:55;100669.66;;;18.36;83.89
39891;BME280;25564;53.312;9.790;2022-10-23T10:53:30;100674.19;;;18.53;83.31
39891;BME280;25564;53.312;9.790;2022-10-23T10:55:54;100667.25;;;18.66;83.25
39891;BME280;25564;53.312;9.790;2022-10-23T10:58:30;100669.28;;;18.78;83.03
39891;BME280;25564;53.312;9.790;2022-10-23T11:01:14;100663.41;;;18.87;82.65
39891;BME280;25564;53.312;9.790;2022-10-23T11:03:49;100658.75;;;18.91;82.03
39891;BME280;25564;53.312;9.790;2022-10-23T11:06:25;100664.22;;;18.89;81.75
39891;BME280;25564;53.312;9.790;2022-10-23T11:09:04;100667.22;;;18.83;81.74
39891;BME280;25564;53.312;9.790;2022-10-23T11:11:51;100657.72;;;18.76;81.40
39891;BME280;25564;53.312;9.790;2022-10-23T11:14:28;100649.94;;;18.72;81.55
39891;BME280;25564;53.312;9.790;2022-10-23T11:17:07;100636.50;;;18.72;81.62
39891;BME280;25564;53.312;9.790;2022-10-23T11:19:44;100635.72;;;18.70;81.53
39891;BME280;25564;53.312;9.790;2022-10-23T11:25:17;100625.75;;;18.72;81.20
39891;BME280;25564;53.312;9.790;2022-10-23T11:30:58;100625.69;;;18.89;81.50
39891;BME280;25564;53.312;9.790;2022-10-23T11:36:49;100618.38;;;19.08;81.24
39891;BME280;25564;53.312;9.790;2022-10-23T11:39:27;100609.97;;;19.14;80.60
39891;BME280;25564;53.312;9.790;2022-10-23T11:47:25;100602.84;;;19.13;79.57
39891;BME280;25564;53.312;9.790;2022-10-23T11:53:04;100576.13;;;19.10;79.66
39891;BME280;25564;53.312;9.790;2022-10-23T11:56:23;100568.91;;;19.11;79.94
39891;BME280;25564;53.312;9.790;2022-10-23T11:58:56;100570.66;;;19.12;80.24
39891;BME280;25564;53.312;9.790;2022-10-23T12:01:55;100561.63;;;19.13;79.83
39891;BME280;25564;53.312;9.790;2022-10-23T12:04:44;100557.22;;;19.27;79.97
39891;BME280;25564;53.312;9.790;2022-10-23T12:07:25;100551.84;;;19.43;80.09
39891;BME280;25564;53.312;9.790;2022-10-23T12:10:03;100560.69;;;19.45;79.62
39891;BME280;25564;53.312;9.790;2022-10-23T12:12:37;100559.91;;;19.43;78.81
39891;BME280;25564;53.312;9.790;2022-10-23T12:17:48;100538.56;;;19.40;78.71
39891;BME280;25564;53.312;9.790;2022-10-23T12:20:27;100533.78;;;19.45;78.65
39891;BME280;25564;53.312;9.790;2022-10-23T12:28:58;100514.16;;;19.43;78.78
39891;BME280;25564;53.312;9.790;2022-10-23T12:31:38;100519.63;;;19.42;78.52
39891;BME280;25564;53.312;9.790;2022-10-23T12:34:26;100515.13;;;19.42;78.67
39891;BME280;25564;53.312;9.790;2022-10-23T12:39:55;100490.91;;;19.42;79.01
39891;BME280;25564;53.312;9.790;2022-10-23T12:42:28;100493.31;;;19.47;78.54
39891;BME280;25564;53.312;9.790;2022-10-23T12:45:02;100494.00;;;19.50;78.64
39891;BME280;25564;53.312;9.790;2022-10-23T12:47:35;100474.41;;;19.48;78.42
39891;BME280;25564;53.312;9.790;2022-10-23T12:50:28;100475.91;;;19.54;77.58
39891;BME280;25564;53.312;9.790;2022-10-23T12:53:02;100466.00;;;19.54;77.84
39891;BME280;25564;53.312;9.790;2022-10-23T12:55:56;100457.13;;;19.52;77.81
39891;BME280;25564;53.312;9.790;2022-10-23T12:58:34;100453.59;;;19.52;78.34
39891;BME280;25564;53.312;9.790;2022-10-23T13:01:05;100456.34;;;19.50;77.60
39891;BME280;25564;53.312;9.790;2022-10-23T13:03:38;100466.09;;;19.53;78.21
39891;BME280;25564;53.312;9.790;2022-10-23T13:06:10;100462.16;;;19.58;78.17
39891;BME280;25564;53.312;9.790;2022-10-23T13:08:45;100445.84;;;19.62;77.39
39891;BME280;25564;53.312;9.790;2022-10-23T13:11:19;100445.66;;;19.65;77.34
39891;BME280;25564;53.312;9.790;2022-10-23T13:13:51;100422.47;;;19.62;77.39
39891;BME280;25564;53.312;9.790;2022-10-23T13:16:24;100423.88;;;19.53;77.44
39891;BME280;25564;53.312;9.790;2022-10-23T13:18:56;100414.41;;;19.46;77.42
39891;BME280;25564;53.312;9.790;2022-10-23T13:21:28;100416.31;;;19.44;77.45
39891;BME280;25564;53.312;9.790;2022-10-23T13:23:59;100404.88;;;19.41;77.42
39891;BME280;25564;53.312;9.790;2022-10-23T13:26:36;100415.19;;;19.48;77.56
39891;BME280;25564;53.312;9.790;2022-10-23T13:29:24;100406.25;;;19.48;77.51
39891;BME280;25564;53.312;9.790;2022-10-23T13:31:56;100406.16;;;19.49;77.61
39891;BME280;25564;53.312;9.790;2022-10-23T13:34:29;100398.88;;;19.51;77.61
39891;BME280;25564;53.312;9.790;2022-10-23T13:37:22;100395.38;;;19.49;76.70
39891;BME280;25564;53.312;9.790;2022-10-23T13:40:06;100387.41;;;19.48;77.23
39891;BME280;25564;53.312;9.790;2022-10-23T13:42:40;100379.59;;;19.43;77.42
39891;BME280;25564;53.312;9.790;2022-10-23T13:45:17;100369.78;;;19.42;77.21
39891;BME280;25564;53.312;9.790;2022-10-23T13:47:49;100370.94;;;19.38;77.72
39891;BME280;25564;53.312;9.790;2022-10-23T13:50:20;100373.81;;;19.35;77.09
39891;BME280;25564;53.312;9.790;2022-10-23T13:52:51;100370.34;;;19.33;77.67
39891;BME280;25564;53.312;9.790;2022-10-23T13:55:24;100347.34;;;19.27;77.08
39891;BME280;25564;53.312;9.790;2022-10-23T13:57:56;100360.22;;;19.22;77.26
39891;BME280;25564;53.312;9.790;2022-10-23T14:00:27;100352.00;;;19.10;77.55
39891;BME280;25564;53.312;9.790;2022-10-23T14:02:59;100359.88;;;19.13;77.62
39891;BME280;25564;53.312;9.790;2022-10-23T14:05:30;100358.31;;;19.09;77.88
39891;BME280;25564;53.312;9.790;2022-10-23T14:08:02;100344.28;;;19.04;77.76
39891;BME280;25564;53.312;9.790;2022-10-23T14:10:33;100366.06;;;18.99;77.93
39891;BME280;25564;53.312;9.790;2022-10-23T14:13:05;100366.31;;;18.94;77.81
39891;BME280;25564;53.312;9.790;2022-10-23T14:15:37;100369.19;;;18.91;78.16
39891;BME280;25564;53.312;9.790;2022-10-23T14:18:08;100363.13;;;18.88;78.15
39891;BME280;25564;53.312;9.790;2022-10-23T14:20:39;100357.91;;;18.85;78.21
39891;BME280;25564;53.312;9.790;2022-10-23T14:23:10;100358.34;;;18.77;77.62
39891;BME280;25564;53.312;9.790;2022-10-23T14:25:42;100357.56;;;18.75;78.29
39891;BME280;25564;53.312;9.790;2022-10-23T14:28:13;100343.66;;;18.69;78.14
39891;BME280;25564;53.312;9.790;2022-10-23T14:30:44;100336.72;;;18.65;78.22
39891;BME280;25564;53.312;9.790;2022-10-23T14:33:16;100321.94;;;18.56;78.31
39891;BME280;25564;53.312;9.790;2022-10-23T14:35:50;100330.97;;;18.55;78.28
39891;BME280;25564;53.312;9.790;2022-10-23T14:38:21;100330.44;;;18.48;78.85
39891;BME280;25564;53.312;9.790;2022-10-23T14:40:52;100345.53;;;18.51;78.58